Archival Weather

NSFA McMurdo Sound

NSFA McMurdo Sound, Antarctica (NZCM)

Report from: Saturday, April 1, 2023 7:55 AM UTC
Current time: Monday, July 22, 2024 10:37 AM UTC

Current weather – Weather history – Daily summaries
Weather forecast

Temperature-20.4°C (-4.7°F)
Dew point-24.3°C (-11.7°F)
Winds Calm
Visibility6.2 mi. (10 km)
Clouds Sky clear
Altimeter29.89 in.Hg (1012 mB)
Relative humidity71 %
Density altitude-4,503 ft. (-1,373 m)
Sea-level pressure101.3 kPa (1013 mB, 29.91 in.Hg)
Remarks Fully automated report
Automated weather observing station with precipitation discriminator
Flight conditions Visual Meteorological Conditions
Raw dataNZCM 010755Z AUTO 00000KT 9999 CLR M20/M24 A2989 RMK AO2 SLP128 T12041243
An error has occurred. This application may no longer respond until reloaded. Reload 🗙